Time;durP1;ratioP1;P1;durP2;ratioP2;P2;SDS_P1;SDS_P2;PMS_P1;PMS_P2;Temp;Humidity;BMP_temperature;BMP_pressure;BME280_temperature;BME280_humidity;BME280_pressure;Samples;Min_cycle;Max_cycle;Signal;HPM_P1;HPM_P2
2022/10/28 00:01:52;;;;;;;10.32;5.33;;;25.40;93.90;;;;;;1831414;77;21171;-83
2022/10/28 00:04:23;;;;;;;13.40;7.28;;;25.40;93.70;;;;;;1842616;75;21119;-82
2022/10/28 00:06:53;;;;;;;12.50;6.80;;;25.40;93.80;;;;;;1840047;77;21088;-83
2022/10/28 00:09:24;;;;;;;17.82;7.87;;;25.50;93.50;;;;;;1850611;75;21203;-82
2022/10/28 00:11:55;;;;;;;10.53;5.83;;;25.50;93.40;;;;;;1851548;75;21146;-81
2022/10/28 00:14:26;;;;;;;13.80;6.22;;;25.60;93.10;;;;;;1835915;75;21594;-82
2022/10/28 00:16:57;;;;;;;11.70;6.33;;;25.60;93.10;;;;;;1841117;75;21076;-82
2022/10/28 00:19:28;;;;;;;10.93;4.97;;;25.70;93.00;;;;;;1834661;76;21570;-80
2022/10/28 00:21:59;;;;;;;10.35;5.25;;;25.80;92.90;;;;;;1864330;76;21119;-81
2022/10/28 00:24:30;;;;;;;11.00;5.78;;;25.80;92.90;;;;;;1830124;77;21201;-82
2022/10/28 00:27:02;;;;;;;11.55;5.60;;;25.80;92.90;;;;;;1875113;74;21178;-82
2022/10/28 00:29:33;;;;;;;12.73;5.45;;;25.80;93.00;;;;;;1843160;77;21154;-81
2022/10/28 00:32:04;;;;;;;8.08;4.80;;;25.80;92.90;;;;;;1867563;76;21107;-82
2022/10/28 00:34:36;;;;;;;8.83;4.45;;;25.80;92.90;;;;;;1828362;77;21903;-80
2022/10/28 00:37:07;;;;;;;10.60;4.70;;;25.80;92.70;;;;;;1827147;77;21143;-82
2022/10/28 00:39:38;;;;;;;9.65;4.17;;;25.90;92.80;;;;;;1874327;76;21115;-83
2022/10/28 00:42:10;;;;;;;6.17;4.00;;;25.90;92.50;;;;;;1835233;77;21133;-82
2022/10/28 00:45:02;;;;;;;8.60;4.40;;;25.90;92.40;;;;;;1877808;76;21167;-82
2022/10/28 00:47:54;;;;;;;9.45;4.50;;;26.00;92.50;;;;;;1828960;77;21240;-83
2022/10/28 00:50:33;;;;;;;11.15;5.40;;;26.00;92.60;;;;;;1863390;76;21720;-82
2022/10/28 00:53:07;;;;;;;10.18;5.30;;;26.10;92.60;;;;;;1816915;77;21095;-82
2022/10/28 00:55:38;;;;;;;7.65;4.80;;;26.20;92.60;;;;;;1828977;76;21096;-81
2022/10/28 00:58:10;;;;;;;11.15;5.28;;;26.20;92.50;;;;;;1873139;76;21209;-83
2022/10/28 01:00:41;;;;;;;7.95;4.05;;;26.20;92.40;;;;;;1834036;77;21175;-83
2022/10/28 01:03:17;;;;;;;7.60;3.80;;;26.30;92.10;;;;;;1880102;76;21123;-82
2022/10/28 01:05:53;;;;;;;7.93;4.27;;;26.30;92.00;;;;;;1838988;75;21095;-82
2022/10/28 01:08:25;;;;;;;10.03;4.15;;;26.30;91.90;;;;;;1838271;77;21392;-81
2022/10/28 01:11:15;;;;;;;10.25;4.42;;;26.40;91.80;;;;;;1871610;76;21201;-82
2022/10/28 01:13:52;;;;;;;7.25;3.62;;;26.40;91.80;;;;;;1836765;76;21131;-84
2022/10/28 01:16:40;;;;;;;8.58;3.45;;;26.40;90.90;;;;;;1870423;76;21084;-82
2022/10/28 01:19:33;;;;;;;7.95;3.70;;;26.50;90.80;;;;;;1832442;77;21089;-83
2022/10/28 01:22:15;;;;;;;7.75;3.12;;;26.50;90.80;;;;;;1798857;79;21694;-84
2022/10/28 01:24:54;;;;;;;7.83;2.92;;;26.60;90.80;;;;;;1821642;78;21687;-83
2022/10/28 01:27:53;;;;;;;8.25;3.30;;;26.60;90.70;;;;;;1879716;76;21187;-83
2022/10/28 01:30:29;;;;;;;8.78;3.95;;;26.60;90.40;;;;;;1831919;75;21139;-90
2022/10/28 01:33:30;;;;;;;5.83;2.92;;;26.70;90.50;;;;;;1838355;76;21064;-90
2022/10/28 01:36:06;;;;;;;8.93;3.60;;;26.70;90.50;;;;;;1871024;74;21049;-87
2022/10/28 01:38:52;;;;;;;8.68;3.83;;;26.70;90.40;;;;;;1783426;79;21205;-89
2022/10/28 01:41:45;;;;;;;7.30;3.02;;;26.70;90.20;;;;;;1842042;77;21215;-89
2022/10/28 01:44:22;;;;;;;11.12;4.30;;;26.70;90.20;;;;;;1885378;75;21122;-88
2022/10/28 01:47:12;;;;;;;10.10;3.85;;;26.80;90.20;;;;;;1900605;74;21131;-88
2022/10/28 01:49:45;;;;;;;8.40;3.87;;;26.80;90.00;;;;;;1900168;74;21070;-90
2022/10/28 01:52:19;;;;;;;8.80;3.42;;;26.80;89.80;;;;;;1899606;74;21895;-77
2022/10/28 01:54:52;;;;;;;14.55;4.28;;;26.90;90.20;;;;;;1874972;75;21282;-75
2022/10/28 01:57:25;;;;;;;15.28;3.98;;;26.90;90.10;;;;;;1873504;75;21198;-73
2022/10/28 01:59:59;;;;;;;11.15;3.52;;;27.00;89.60;;;;;;1872506;75;21195;-74
2022/10/28 02:02:32;;;;;;;9.28;3.75;;;27.00;89.20;;;;;;1873084;75;21090;-73
2022/10/28 02:05:05;;;;;;;8.23;3.62;;;27.10;88.20;;;;;;1872799;75;21206;-72
2022/10/28 02:07:37;;;;;;;12.47;3.83;;;27.10;88.50;;;;;;1879274;75;21209;-72
2022/10/28 02:10:17;;;;;;;9.18;3.77;;;27.10;88.60;;;;;;1862250;75;21185;-74
2022/10/28 02:12:50;;;;;;;6.58;3.60;;;27.20;89.00;;;;;;1857582;75;21171;-77
2022/10/28 02:15:30;;;;;;;9.03;3.50;;;27.30;88.50;;;;;;1854184;75;21100;-72
2022/10/28 02:18:23;;;;;;;6.65;3.08;;;27.30;88.00;;;;;;1856060;75;21667;-73
2022/10/28 02:21:03;;;;;;;5.92;3.30;;;27.40;87.80;;;;;;1854789;76;21115;-72
2022/10/28 02:23:43;;;;;;;6.97;3.50;;;27.40;87.40;;;;;;1854665;76;21625;-75
2022/10/28 02:26:22;;;;;;;8.08;3.37;;;27.40;87.30;;;;;;1858727;75;21150;-75
2022/10/28 02:28:58;;;;;;;7.75;3.20;;;27.50;87.20;;;;;;1850844;76;21269;-74
2022/10/28 02:31:47;;;;;;;7.65;3.20;;;27.60;86.30;;;;;;1847605;77;21056;-74
2022/10/28 02:34:23;;;;;;;6.20;3.00;;;27.60;87.10;;;;;;1856504;76;21543;-75
2022/10/28 02:36:56;;;;;;;5.92;2.90;;;27.70;86.10;;;;;;1857365;75;21110;-76
2022/10/28 02:39:30;;;;;;;8.15;2.75;;;27.70;85.10;;;;;;1850721;77;21746;-75
2022/10/28 02:42:06;;;;;;;6.47;2.98;;;27.80;83.90;;;;;;1853074;75;21229;-76
2022/10/28 02:44:43;;;;;;;7.35;2.77;;;27.90;84.60;;;;;;1845456;76;21325;-76
2022/10/28 02:47:18;;;;;;;8.18;3.02;;;27.90;83.80;;;;;;1848729;76;21159;-77
2022/10/28 02:49:51;;;;;;;5.03;2.55;;;27.90;83.30;;;;;;1856160;76;21200;-78
2022/10/28 02:52:26;;;;;;;10.10;2.85;;;28.00;83.30;;;;;;1855137;76;21154;-76
2022/10/28 02:54:59;;;;;;;7.08;2.65;;;28.00;82.60;;;;;;1843655;76;21182;-75
2022/10/28 02:57:33;;;;;;;6.15;3.08;;;28.10;82.30;;;;;;1819630;77;21150;-77
2022/10/28 03:00:18;;;;;;;7.12;2.87;;;28.20;82.00;;;;;;1822324;77;21148;-76
2022/10/28 03:02:49;;;;;;;10.38;2.75;;;28.30;81.80;;;;;;1843520;76;21166;-74
2022/10/28 03:05:20;;;;;;;5.60;2.42;;;28.40;81.50;;;;;;1817126;77;21088;-75
2022/10/28 03:07:51;;;;;;;6.72;2.90;;;28.60;81.40;;;;;;1842327;76;21288;-78
2022/10/28 03:10:24;;;;;;;6.10;2.77;;;28.70;79.40;;;;;;1858203;75;21131;-77
2022/10/28 03:12:55;;;;;;;6.35;2.47;;;28.80;79.50;;;;;;1861505;75;21338;-76
2022/10/28 03:15:28;;;;;;;5.83;2.75;;;28.90;78.40;;;;;;1847503;75;22279;-76
2022/10/28 03:17:59;;;;;;;6.12;3.00;;;29.00;78.10;;;;;;1854842;75;21161;-77
2022/10/28 03:20:30;;;;;;;7.30;2.58;;;29.20;75.90;;;;;;1852362;75;21087;-76
2022/10/28 03:23:06;;;;;;;6.15;2.47;;;29.20;75.90;;;;;;1854244;75;21206;-77
2022/10/28 03:25:41;;;;;;;5.08;2.95;;;29.30;74.40;;;;;;1855634;75;21155;-75
2022/10/28 03:28:31;;;;;;;6.65;2.60;;;29.40;73.90;;;;;;1853770;75;21108;-77
2022/10/28 03:31:02;;;;;;;5.42;2.60;;;29.60;71.90;;;;;;1870736;75;21152;-76
2022/10/28 03:33:34;;;;;;;4.40;2.55;;;29.70;72.30;;;;;;1869767;75;21116;-76
2022/10/28 03:36:06;;;;;;;7.08;2.58;;;29.80;72.00;;;;;;1841026;76;21561;-76
2022/10/28 03:38:37;;;;;;;7.33;2.70;;;29.90;69.60;;;;;;1853632;76;21712;-76
2022/10/28 03:41:09;;;;;;;7.00;2.70;;;30.00;69.30;;;;;;1860466;75;21143;-76
2022/10/28 03:43:40;;;;;;;5.78;2.45;;;30.10;68.60;;;;;;1855220;75;21052;-76
2022/10/28 03:46:11;;;;;;;5.67;2.67;;;30.20;68.00;;;;;;1867231;75;22393;-77
2022/10/28 03:48:43;;;;;;;6.20;2.90;;;30.20;68.60;;;;;;1869235;75;21119;-77
2022/10/28 03:51:14;;;;;;;6.35;2.40;;;30.30;68.10;;;;;;1867695;75;21111;-76
2022/10/28 03:53:45;;;;;;;6.80;2.85;;;30.30;66.80;;;;;;1871817;75;21125;-77
2022/10/28 03:56:16;;;;;;;5.12;2.72;;;30.40;66.60;;;;;;1868539;75;21104;-77
2022/10/28 03:58:48;;;;;;;6.60;3.10;;;30.40;65.80;;;;;;1867384;75;21155;-74
2022/10/28 04:01:20;;;;;;;7.80;2.92;;;30.50;66.70;;;;;;1867378;75;21143;-76
2022/10/28 04:03:52;;;;;;;5.83;2.80;;;30.60;65.40;;;;;;1877304;75;21089;-76
2022/10/28 04:06:31;;;;;;;6.80;2.72;;;30.60;64.50;;;;;;1867234;75;21084;-76
2022/10/28 04:09:06;;;;;;;6.35;2.50;;;30.60;65.40;;;;;;1877628;75;21654;-76
2022/10/28 04:11:39;;;;;;;6.28;2.55;;;30.60;65.80;;;;;;1875133;75;21249;-79
2022/10/28 04:14:19;;;;;;;5.35;2.50;;;30.70;63.20;;;;;;1873815;75;21159;-76
2022/10/28 04:16:50;;;;;;;8.40;3.15;;;30.80;61.80;;;;;;1869227;75;21159;-77
2022/10/28 04:19:23;;;;;;;6.97;2.60;;;30.80;62.90;;;;;;1868478;75;21517;-77
2022/10/28 04:21:56;;;;;;;5.50;2.00;;;30.90;61.10;;;;;;1871177;75;21158;-76
2022/10/28 04:24:28;;;;;;;5.37;2.72;;;30.90;61.10;;;;;;1873054;75;21178;-75
2022/10/28 04:26:59;;;;;;;10.40;3.08;;;31.00;62.00;;;;;;1872609;75;21178;-77
2022/10/28 04:29:31;;;;;;;6.22;3.20;;;31.00;61.00;;;;;;1883433;75;21158;-76
2022/10/28 04:32:02;;;;;;;6.37;2.77;;;31.10;59.90;;;;;;1880837;75;21169;-75
2022/10/28 04:34:33;;;;;;;8.85;3.45;;;31.10;60.70;;;;;;1881173;75;21622;-76
2022/10/28 04:37:04;;;;;;;8.53;3.10;;;31.20;60.30;;;;;;1874103;75;21174;-76
2022/10/28 04:39:36;;;;;;;7.10;2.77;;;31.20;60.70;;;;;;1878939;75;21142;-76
2022/10/28 04:42:08;;;;;;;7.67;2.60;;;31.30;60.20;;;;;;1882483;75;21057;-75
2022/10/28 04:44:39;;;;;;;6.40;3.00;;;31.30;58.90;;;;;;1883606;75;21072;-75
2022/10/28 04:47:10;;;;;;;4.28;2.35;;;31.30;59.50;;;;;;1879603;75;21104;-78
2022/10/28 04:49:41;;;;;;;6.53;2.58;;;31.40;58.70;;;;;;1873263;75;21177;-76
2022/10/28 04:52:13;;;;;;;6.37;3.20;;;31.40;59.30;;;;;;1897011;74;21063;-74
2022/10/28 04:54:44;;;;;;;9.10;2.52;;;31.40;58.90;;;;;;1906280;73;21579;-76
2022/10/28 04:57:15;;;;;;;7.30;2.70;;;31.50;59.50;;;;;;1897383;74;21111;-77
2022/10/28 04:59:45;;;;;;;4.85;2.83;;;31.60;58.60;;;;;;1902718;74;21087;-77
2022/10/28 05:02:18;;;;;;;6.75;2.52;;;31.60;58.40;;;;;;1904996;74;21201;-76
2022/10/28 05:04:50;;;;;;;5.25;2.40;;;31.80;58.40;;;;;;1900372;74;21116;-77
2022/10/28 05:07:22;;;;;;;6.33;2.83;;;31.90;58.80;;;;;;1844463;77;21261;-77
2022/10/28 05:09:56;;;;;;;5.70;3.02;;;32.00;57.60;;;;;;1862816;76;21252;-75
2022/10/28 05:12:28;;;;;;;8.00;2.90;;;32.00;56.70;;;;;;1876956;75;21682;-77
2022/10/28 05:15:01;;;;;;;6.28;2.90;;;32.10;57.10;;;;;;1873983;75;21174;-76
2022/10/28 05:17:32;;;;;;;9.70;3.00;;;32.20;56.70;;;;;;1876287;75;21155;-76
2022/10/28 05:20:04;;;;;;;4.42;2.70;;;32.20;56.70;;;;;;1877505;75;21143;-76
2022/10/28 05:22:35;;;;;;;5.55;2.67;;;32.30;56.60;;;;;;1878076;75;21639;-76
2022/10/28 05:25:07;;;;;;;5.60;2.77;;;32.20;56.60;;;;;;1879216;75;21128;-76
2022/10/28 05:27:39;;;;;;;6.30;2.77;;;32.30;56.90;;;;;;1879593;75;21708;-75
2022/10/28 05:30:31;;;;;;;4.00;2.50;;;32.30;57.00;;;;;;1879360;75;21120;-76
2022/10/28 05:33:04;;;;;;;6.87;3.15;;;32.30;56.60;;;;;;1893246;74;21100;-76
2022/10/28 05:35:38;;;;;;;4.62;2.87;;;32.30;56.80;;;;;;1906529;74;21120;-77
2022/10/28 05:38:15;;;;;;;6.33;2.70;;;32.30;56.00;;;;;;1905479;74;21152;-75
2022/10/28 05:41:25;;;;;;;5.65;2.83;;;32.30;56.60;;;;;;1909431;74;21033;-75
2022/10/28 05:43:57;;;;;;;5.55;2.83;;;32.20;56.50;;;;;;1901686;74;21089;-77
2022/10/28 05:46:28;;;;;;;4.00;2.20;;;32.20;56.80;;;;;;1921461;74;21129;-75
2022/10/28 05:49:04;;;;;;;9.18;3.27;;;32.20;56.60;;;;;;1893538;74;21155;-75
2022/10/28 05:51:36;;;;;;;4.70;2.67;;;32.20;57.00;;;;;;1906610;74;21379;-76
2022/10/28 05:54:07;;;;;;;4.75;3.05;;;32.20;56.90;;;;;;1900266;74;21185;-76
2022/10/28 05:56:38;;;;;;;5.75;2.60;;;32.20;57.80;;;;;;1927050;73;21194;-76
2022/10/28 05:59:11;;;;;;;6.75;2.95;;;32.20;57.70;;;;;;1918441;73;21148;-76
2022/10/28 06:01:42;;;;;;;6.60;2.87;;;32.30;58.00;;;;;;1920013;73;21075;-75
2022/10/28 06:04:13;;;;;;;5.35;2.90;;;32.30;57.30;;;;;;1879921;75;21098;-76
2022/10/28 06:06:46;;;;;;;5.45;2.90;;;32.20;57.60;;;;;;1913623;73;21760;-77
2022/10/28 06:09:17;;;;;;;7.80;2.80;;;32.20;57.80;;;;;;1916892;73;21119;-76
2022/10/28 06:11:50;;;;;;;6.30;2.87;;;32.30;57.20;;;;;;1915605;73;21260;-76
2022/10/28 06:14:22;;;;;;;5.40;2.92;;;32.30;57.40;;;;;;1921117;73;21119;-76
2022/10/28 06:16:56;;;;;;;5.67;3.05;;;32.30;57.70;;;;;;1895573;74;21148;-76
2022/10/28 06:19:27;;;;;;;6.15;3.30;;;32.40;58.10;;;;;;1890166;74;21119;-75
2022/10/28 06:21:58;;;;;;;5.72;2.67;;;32.40;58.00;;;;;;1917078;73;21127;-77
2022/10/28 06:24:29;;;;;;;6.10;2.70;;;32.40;57.90;;;;;;1874033;75;21131;-77
2022/10/28 06:27:00;;;;;;;4.53;2.85;;;32.40;57.10;;;;;;1924267;73;21087;-77
2022/10/28 06:29:31;;;;;;;5.25;3.15;;;32.40;57.50;;;;;;1880452;75;21085;-76
2022/10/28 06:32:02;;;;;;;6.12;3.00;;;32.40;57.50;;;;;;1889849;74;21135;-78
2022/10/28 06:34:34;;;;;;;4.97;2.80;;;32.40;57.60;;;;;;1902741;73;21076;-77
2022/10/28 06:37:10;;;;;;;5.53;2.65;;;32.40;57.40;;;;;;1906788;73;21208;-77
2022/10/28 06:39:38;;;;;;;6.47;2.65;;;32.40;57.40;;;;;;1908759;73;21107;-76
2022/10/28 06:42:12;;;;;;;7.92;3.00;;;32.40;57.50;;;;;;1908331;73;21075;-76
2022/10/28 06:44:43;;;;;;;7.78;3.40;;;32.40;56.60;;;;;;1887003;74;21194;-75
2022/10/28 06:47:16;;;;;;;5.25;2.37;;;32.40;56.90;;;;;;1899460;75;21140;-78
2022/10/28 06:49:47;;;;;;;5.53;3.02;;;32.40;56.80;;;;;;1902009;75;21064;-77
2022/10/28 06:52:20;;;;;;;9.73;3.10;;;32.40;57.00;;;;;;1899574;75;21135;-78
2022/10/28 06:54:51;;;;;;;6.28;2.83;;;32.40;56.70;;;;;;1896705;75;21154;-78
2022/10/28 06:57:22;;;;;;;5.78;2.90;;;32.40;57.20;;;;;;1897839;74;21080;-78
2022/10/28 06:59:54;;;;;;;6.42;3.02;;;32.30;56.80;;;;;;1892468;74;21175;-77
2022/10/28 07:02:25;;;;;;;4.70;2.72;;;32.40;57.30;;;;;;1892377;74;21189;-76
2022/10/28 07:04:57;;;;;;;4.97;3.08;;;32.40;57.40;;;;;;1897256;73;21163;-76
2022/10/28 07:07:28;;;;;;;5.37;2.87;;;32.40;57.50;;;;;;1852272;76;21131;-77
2022/10/28 07:10:01;;;;;;;8.23;2.85;;;32.40;57.50;;;;;;1895634;74;21078;-77
2022/10/28 07:12:31;;;;;;;6.70;2.70;;;32.40;57.50;;;;;;1894592;74;21124;-78
2022/10/28 07:15:02;;;;;;;4.70;2.60;;;32.40;57.60;;;;;;1904698;73;21224;-79
2022/10/28 07:17:33;;;;;;;7.65;2.85;;;32.40;57.60;;;;;;1905291;73;21212;-78
2022/10/28 07:20:10;;;;;;;4.30;2.55;;;32.30;57.70;;;;;;1890182;74;21194;-76
2022/10/28 07:22:40;;;;;;;5.12;2.60;;;32.30;57.90;;;;;;1897217;74;21169;-78
2022/10/28 07:25:11;;;;;;;7.83;2.98;;;32.20;57.80;;;;;;1903001;74;21670;-76
2022/10/28 07:27:42;;;;;;;5.33;2.92;;;32.20;57.70;;;;;;1904389;74;21115;-77
2022/10/28 07:30:18;;;;;;;5.85;2.90;;;32.20;57.90;;;;;;1911711;73;21729;-76
2022/10/28 07:32:54;;;;;;;5.70;2.42;;;32.10;58.30;;;;;;1904566;73;21173;-76
2022/10/28 07:35:26;;;;;;;6.62;2.80;;;32.10;58.30;;;;;;1905749;74;21140;-76
2022/10/28 07:38:04;;;;;;;8.10;3.08;;;32.00;58.10;;;;;;1909581;74;21147;-76
2022/10/28 07:40:37;;;;;;;4.20;2.80;;;32.00;57.80;;;;;;1896940;74;21124;-77
2022/10/28 07:43:12;;;;;;;5.78;2.45;;;32.00;57.80;;;;;;1861555;75;21116;-75
2022/10/28 07:45:43;;;;;;;5.55;3.08;;;32.00;58.40;;;;;;1901926;74;21663;-75
2022/10/28 07:48:17;;;;;;;6.20;3.20;;;32.00;58.50;;;;;;1900258;74;21262;-75
2022/10/28 07:50:48;;;;;;;4.78;3.08;;;32.00;58.50;;;;;;1907062;74;21092;-76
2022/10/28 07:53:21;;;;;;;6.50;2.95;;;32.00;58.50;;;;;;1901344;74;21633;-75
2022/10/28 07:56:02;;;;;;;6.10;3.37;;;31.90;58.30;;;;;;1846951;75;21149;-76
2022/10/28 07:58:36;;;;;;;5.03;2.90;;;31.90;58.50;;;;;;1903571;74;21068;-76
2022/10/28 08:01:09;;;;;;;6.35;3.37;;;31.90;58.40;;;;;;1905807;74;21247;-77
2022/10/28 08:03:40;;;;;;;6.67;2.85;;;31.80;58.50;;;;;;1909966;74;21111;-75
2022/10/28 08:06:16;;;;;;;8.65;3.10;;;31.80;58.70;;;;;;1900523;73;21043;-78
2022/10/28 08:08:47;;;;;;;7.17;3.12;;;31.80;58.70;;;;;;1903453;74;21110;-76
2022/10/28 08:11:25;;;;;;;6.78;3.10;;;31.80;58.60;;;;;;1895207;74;21057;-76
2022/10/28 08:13:54;;;;;;;5.08;3.05;;;31.80;59.00;;;;;;1857507;76;21126;-76
2022/10/28 08:16:27;;;;;;;6.12;3.27;;;31.80;58.40;;;;;;1859830;76;21168;-76
2022/10/28 08:18:58;;;;;;;4.95;3.05;;;31.80;58.30;;;;;;1895419;74;21148;-75
2022/10/28 08:21:31;;;;;;;7.40;3.33;;;31.80;58.70;;;;;;1901260;73;21079;-76
2022/10/28 08:24:04;;;;;;;4.97;3.12;;;31.80;59.20;;;;;;1885514;74;21147;-76
2022/10/28 08:26:35;;;;;;;6.00;3.12;;;31.70;59.00;;;;;;1854538;75;21177;-75
2022/10/28 08:29:07;;;;;;;5.78;3.10;;;31.80;59.00;;;;;;1895804;74;21259;-76
2022/10/28 08:31:38;;;;;;;7.05;3.50;;;31.70;59.30;;;;;;1888274;74;21106;-76
2022/10/28 08:34:10;;;;;;;6.92;2.85;;;31.80;59.10;;;;;;1912101;73;21218;-77
2022/10/28 08:36:42;;;;;;;6.30;3.20;;;31.80;59.30;;;;;;1873016;76;21730;-75
2022/10/28 08:39:13;;;;;;;8.38;3.50;;;31.80;58.90;;;;;;1912837;73;21154;-77
2022/10/28 08:42:21;;;;;;;7.62;3.45;;;31.80;59.40;;;;;;1877019;75;21167;-75
2022/10/28 08:45:09;;;;;;;6.62;3.70;;;31.80;59.20;;;;;;1918900;73;21576;-76
2022/10/28 08:47:56;;;;;;;6.90;3.33;;;31.70;59.20;;;;;;1871369;75;21156;-78
2022/10/28 08:50:30;;;;;;;5.87;3.07;;;31.80;60.70;;;;;;1861216;75;21143;-77
2022/10/28 08:53:06;;;;;;;10.65;3.77;;;31.70;59.40;;;;;;1836746;77;21145;-76
2022/10/28 08:55:44;;;;;;;5.15;3.20;;;31.70;59.80;;;;;;1857798;76;21170;-76
2022/10/28 08:58:18;;;;;;;6.75;3.20;;;31.70;59.80;;;;;;1897475;74;21760;-77
2022/10/28 09:00:54;;;;;;;7.17;2.90;;;31.60;60.00;;;;;;1921818;73;21154;-77
2022/10/28 09:03:40;;;;;;;4.50;2.70;;;31.60;59.90;;;;;;1920623;73;21183;-78
2022/10/28 09:06:11;;;;;;;6.93;3.70;;;31.60;60.30;;;;;;1916127;73;21167;-75
2022/10/28 09:08:45;;;;;;;7.87;3.20;;;31.50;60.40;;;;;;1921084;73;21187;-77
2022/10/28 09:11:27;;;;;;;5.30;3.12;;;31.40;60.50;;;;;;1911703;73;21189;-77
2022/10/28 09:14:05;;;;;;;4.72;3.12;;;31.40;60.40;;;;;;1848625;75;21206;-76
2022/10/28 09:16:51;;;;;;;7.53;3.55;;;31.40;60.60;;;;;;1891754;74;21177;-77
2022/10/28 09:19:24;;;;;;;6.28;3.00;;;31.40;61.20;;;;;;1904476;74;21155;-78
2022/10/28 09:22:21;;;;;;;6.97;3.35;;;31.40;61.60;;;;;;1891669;74;21791;-76
2022/10/28 09:25:30;;;;;;;7.72;3.17;;;31.30;62.00;;;;;;1897779;74;21151;-75
2022/10/28 09:28:29;;;;;;;5.53;3.40;;;31.20;62.00;;;;;;1919552;73;21163;-75
2022/10/28 09:31:08;;;;;;;8.73;3.37;;;31.20;62.00;;;;;;1831248;76;21645;-74
2022/10/28 09:33:42;;;;;;;6.90;3.27;;;31.20;62.00;;;;;;1890823;74;21175;-74
2022/10/28 09:36:19;;;;;;;7.10;3.30;;;31.10;61.70;;;;;;1893238;75;21191;-75
2022/10/28 09:38:52;;;;;;;5.97;3.47;;;31.10;61.90;;;;;;1908501;73;21153;-75
2022/10/28 09:41:41;;;;;;;6.58;3.37;;;31.10;61.80;;;;;;1908099;73;21165;-74
2022/10/28 09:44:20;;;;;;;6.62;3.17;;;31.00;62.10;;;;;;1900177;74;21086;-76
2022/10/28 09:46:57;;;;;;;5.47;3.33;;;31.00;62.50;;;;;;1909993;73;21127;-76
2022/10/28 09:49:34;;;;;;;;;;;30.90;62.30;;;;;;1869899;75;21128;-76
2022/10/28 09:52:13;;;;;;;13.40;3.85;;;30.90;62.80;;;;;;1812579;77;20501;-76
2022/10/28 09:54:47;;;;;;;8.23;3.58;;;30.90;62.40;;;;;;1910212;73;21176;-76
2022/10/28 09:57:19;;;;;;;9.35;3.75;;;30.90;63.40;;;;;;1852666;75;21066;-76
2022/10/28 10:00:03;;;;;;;8.63;3.58;;;30.80;64.60;;;;;;1904909;73;21102;-76
2022/10/28 10:02:36;;;;;;;6.65;3.52;;;30.80;65.50;;;;;;1905395;73;21861;-75
2022/10/28 10:05:15;;;;;;;10.58;3.95;;;30.70;65.90;;;;;;1850389;76;21703;-76
2022/10/28 10:08:00;;;;;;;8.05;4.00;;;30.70;66.20;;;;;;1839823;76;21209;-77
2022/10/28 10:10:30;;;;;;;7.65;3.70;;;30.60;66.80;;;;;;1879291;75;21108;-77
2022/10/28 10:13:03;;;;;;;7.58;3.33;;;30.60;67.40;;;;;;1849657;75;21163;-76
2022/10/28 10:15:36;;;;;;;8.93;3.58;;;30.60;69.80;;;;;;1872044;74;21143;-76
2022/10/28 10:18:10;;;;;;;8.95;3.77;;;30.50;70.90;;;;;;1892320;74;21124;-76
2022/10/28 10:20:58;;;;;;;9.18;3.22;;;30.40;71.80;;;;;;1903132;73;21130;-76
2022/10/28 10:23:37;;;;;;;7.42;3.08;;;30.30;72.30;;;;;;1849815;76;21169;-75
2022/10/28 10:26:15;;;;;;;7.92;3.37;;;30.20;73.00;;;;;;1906686;73;21153;-77
2022/10/28 10:28:49;;;;;;;10.70;3.65;;;30.10;73.20;;;;;;1902915;74;21136;-71
2022/10/28 10:31:29;;;;;;;8.90;3.58;;;30.10;73.30;;;;;;1903576;74;21411;-75
2022/10/28 10:34:02;;;;;;;9.70;3.80;;;30.10;74.80;;;;;;1910181;73;21174;-75
2022/10/28 10:36:35;;;;;;;9.90;4.05;;;30.00;74.70;;;;;;1876112;75;21241;-74
2022/10/28 10:39:12;;;;;;;8.50;4.07;;;30.00;75.30;;;;;;1917657;73;21132;-76
2022/10/28 10:41:55;;;;;;;7.03;3.47;;;29.90;75.30;;;;;;1917104;73;21074;-75
2022/10/28 10:44:41;;;;;;;9.70;4.87;;;29.90;76.30;;;;;;1890311;75;21131;-76
2022/10/28 10:47:24;;;;;;;10.15;4.20;;;29.90;75.90;;;;;;1921354;73;21623;-76
2022/10/28 10:49:57;;;;;;;13.62;4.67;;;29.80;76.00;;;;;;1923624;73;21103;-76
2022/10/28 10:52:35;;;;;;;20.95;11.40;;;29.80;76.80;;;;;;1868996;75;21051;-76
2022/10/28 10:55:08;;;;;;;10.80;6.37;;;29.80;76.50;;;;;;1923959;73;21095;-75
2022/10/28 10:57:50;;;;;;;13.25;5.70;;;29.70;77.20;;;;;;1925687;73;21161;-75
2022/10/28 11:00:24;;;;;;;9.05;4.70;;;29.70;77.40;;;;;;1921342;73;21115;-74
2022/10/28 11:02:59;;;;;;;11.63;5.03;;;29.70;78.10;;;;;;1914766;73;21824;-75
2022/10/28 11:05:31;;;;;;;11.15;4.97;;;29.70;77.60;;;;;;1921688;73;21116;-75
2022/10/28 11:08:11;;;;;;;11.12;5.22;;;29.60;77.50;;;;;;1874306;76;21140;-75
2022/10/28 11:10:51;;;;;;;10.88;5.08;;;29.60;78.20;;;;;;1868839;75;21217;-74
2022/10/28 11:13:27;;;;;;;8.85;5.42;;;29.50;78.60;;;;;;1916550;72;21142;-74
2022/10/28 11:16:03;;;;;;;11.35;6.05;;;29.50;78.70;;;;;;1930294;73;21181;-73
2022/10/28 11:18:46;;;;;;;14.70;5.58;;;29.50;78.30;;;;;;1882449;75;21143;-73
2022/10/28 11:21:31;;;;;;;7.50;4.92;;;29.40;78.50;;;;;;1922673;73;21102;-75
2022/10/28 11:24:10;;;;;;;10.68;4.90;;;29.40;79.40;;;;;;1911455;72;21174;-73
2022/10/28 11:26:43;;;;;;;16.55;6.65;;;29.40;78.70;;;;;;1919549;73;21574;-74
2022/10/28 11:29:19;;;;;;;14.15;7.03;;;29.30;79.80;;;;;;1914742;73;21125;-88
2022/10/28 11:32:06;;;;;;;11.63;5.60;;;29.30;79.60;;;;;;1876890;75;21116;-88
2022/10/28 11:35:09;;;;;;;13.48;6.55;;;29.30;79.80;;;;;;1922946;73;21152;-87
2022/10/28 11:37:49;;;;;;;16.52;6.53;;;29.30;80.10;;;;;;1919507;73;21191;-89
2022/10/28 11:40:54;;;;;;;10.30;6.12;;;29.20;79.20;;;;;;1917148;73;21092;-88
2022/10/28 11:43:40;;;;;;;10.60;6.20;;;29.20;79.80;;;;;;1833069;76;22538;-89
2022/10/28 11:46:49;;;;;;;15.03;7.90;;;29.10;79.10;;;;;;1915132;73;21148;-89
2022/10/28 11:49:58;;;;;;;11.83;6.47;;;29.10;79.40;;;;;;1876122;75;21595;-85
2022/10/28 11:52:57;;;;;;;13.45;7.60;;;29.10;79.50;;;;;;1910738;73;21117;-88
2022/10/28 11:55:16;;;;;;;11.33;6.60;;;29.10;79.80;;;;;;1891955;73;21226;-85
2022/10/28 11:58:15;;;;;;;13.30;5.65;;;29.00;79.50;;;;;;1913449;75;21190;-87
2022/10/28 12:01:05;;;;;;;11.45;6.08;;;29.00;79.00;;;;;;1911228;75;21127;-87
2022/10/28 12:03:47;;;;;;;12.23;5.50;;;29.00;79.20;;;;;;1892374;74;21226;-87
2022/10/28 12:06:35;;;;;;;9.63;5.15;;;29.00;79.30;;;;;;1885825;74;21113;-87
2022/10/28 12:09:19;;;;;;;13.50;6.40;;;29.00;79.50;;;;;;1911884;73;21179;-87
2022/10/28 12:12:01;;;;;;;16.00;6.37;;;28.90;79.60;;;;;;1905668;75;21097;-85
2022/10/28 12:14:49;;;;;;;13.83;6.15;;;28.90;79.30;;;;;;1893854;74;21128;-87
2022/10/28 12:17:35;;;;;;;14.78;6.85;;;28.90;79.50;;;;;;1893250;75;21630;-86
2022/10/28 12:20:11;;;;;;;13.55;6.12;;;28.90;79.60;;;;;;1900371;73;21072;-86
2022/10/28 12:22:57;;;;;;;11.12;6.00;;;28.90;79.40;;;;;;1913413;73;21108;-88
2022/10/28 12:25:34;;;;;;;12.20;7.08;;;28.80;79.40;;;;;;1902195;73;21150;-87
2022/10/28 12:28:20;;;;;;;11.85;6.53;;;28.80;79.30;;;;;;1913081;75;21149;-88
2022/10/28 12:30:52;;;;;;;10.35;5.83;;;28.80;79.00;;;;;;1874155;75;21823;-88
2022/10/28 12:33:35;;;;;;;10.78;6.10;;;28.80;79.30;;;;;;1888766;75;21212;-87
2022/10/28 12:36:09;;;;;;;12.53;6.40;;;28.80;79.40;;;;;;1887939;74;21186;-86
2022/10/28 12:39:03;;;;;;;14.35;6.70;;;28.70;79.40;;;;;;1914681;73;21112;-88
2022/10/28 12:42:04;;;;;;;8.93;5.70;;;28.70;79.70;;;;;;1830184;77;21270;-81
2022/10/28 12:44:40;;;;;;;13.38;6.80;;;28.70;79.60;;;;;;1911161;73;21061;-83
2022/10/28 12:47:32;;;;;;;11.70;6.40;;;28.80;79.30;;;;;;1877194;75;21142;-84
2022/10/28 12:50:15;;;;;;;10.38;6.55;;;28.80;79.20;;;;;;1895556;74;21151;-82
2022/10/28 12:53:00;;;;;;;11.28;6.00;;;28.90;79.20;;;;;;1886724;74;21123;-83
2022/10/28 12:55:46;;;;;;;12.70;6.40;;;28.80;79.10;;;;;;1892604;74;21774;-83
2022/10/28 12:58:25;;;;;;;16.62;7.10;;;28.90;79.00;;;;;;1869744;75;21258;-82
2022/10/28 13:01:01;;;;;;;13.50;7.17;;;28.90;79.10;;;;;;1907652;73;21170;-82
2022/10/28 13:03:32;;;;;;;11.63;6.78;;;28.90;79.00;;;;;;1897834;74;21094;-82
2022/10/28 13:06:34;;;;;;;13.68;6.70;;;28.90;79.30;;;;;;1872175;75;21164;-84
2022/10/28 13:09:25;;;;;;;12.28;7.60;;;28.90;79.60;;;;;;1796041;76;21244;-82
2022/10/28 13:12:20;;;;;;;14.38;7.25;;;28.90;79.70;;;;;;1861619;74;21096;-81
2022/10/28 13:15:16;;;;;;;14.98;7.90;;;28.90;79.80;;;;;;1871414;75;21164;-81
2022/10/28 13:17:58;;;;;;;15.63;7.70;;;28.80;79.70;;;;;;1897665;74;21133;-83
2022/10/28 13:20:58;;;;;;;17.70;9.75;;;28.80;80.10;;;;;;1897404;74;21759;-83
2022/10/28 13:23:34;;;;;;;23.05;10.85;;;28.80;80.10;;;;;;1893657;74;21057;-84
2022/10/28 13:26:24;;;;;;;21.07;11.00;;;28.80;80.80;;;;;;1878791;74;21125;-82
2022/10/28 13:29:01;;;;;;;19.75;11.28;;;28.70;81.00;;;;;;1899898;74;21065;-82
2022/10/28 13:31:43;;;;;;;22.93;10.80;;;28.70;81.50;;;;;;1898375;74;21169;-82
2022/10/28 13:34:19;;;;;;;16.37;10.28;;;28.70;81.60;;;;;;1899032;74;21180;-82